Time;durP1;ratioP1;P1;durP2;ratioP2;P2;SDS_P1;SDS_P2;PMS_P1;PMS_P2;Temp;Humidity;BMP_temperature;BMP_pressure;BME280_temperature;BME280_humidity;BME280_pressure;Samples;Min_cycle;Max_cycle;Signal;HPM_P1;HPM_P2
2022/08/31 00:05:48;;;;;;;6.37;2.80;;;19.50;18.70;;;;;;5078884;28;20448;-82
2022/08/31 00:08:16;;;;;;;10.30;3.13;;;19.60;19.40;;;;;;5077223;28;21162;-82
2022/08/31 00:10:45;;;;;;;6.10;3.03;;;19.40;19.30;;;;;;5076839;28;20446;-83
2022/08/31 00:13:12;;;;;;;7.20;2.63;;;19.40;19.30;;;;;;5080390;28;21014;-85
2022/08/31 00:15:40;;;;;;;8.57;3.00;;;19.40;19.30;;;;;;5078863;28;20461;-83
2022/08/31 00:18:08;;;;;;;7.03;2.73;;;19.30;19.70;;;;;;5085394;28;20477;-85
2022/08/31 00:20:35;;;;;;;8.23;3.40;;;19.20;20.40;;;;;;5082900;28;20446;-84
2022/08/31 00:23:03;;;;;;;6.50;2.80;;;19.20;21.30;;;;;;5085060;28;20460;-83
2022/08/31 00:25:30;;;;;;;7.57;2.63;;;19.10;21.80;;;;;;5083483;28;20452;-83
2022/08/31 00:27:57;;;;;;;8.00;3.17;;;19.10;23.70;;;;;;5083276;28;20480;-85
2022/08/31 00:30:24;;;;;;;6.40;3.20;;;18.90;24.90;;;;;;5084362;28;20854;-83
2022/08/31 00:32:52;;;;;;;7.03;3.37;;;18.90;26.20;;;;;;5083977;28;20826;-84
2022/08/31 00:35:19;;;;;;;12.20;3.77;;;18.80;26.20;;;;;;5083951;28;20459;-84
2022/08/31 00:37:46;;;;;;;6.80;3.73;;;18.80;26.50;;;;;;5084088;28;20501;-83
2022/08/31 00:40:13;;;;;;;6.90;2.90;;;18.80;26.20;;;;;;5083008;28;20458;-82
2022/08/31 00:42:40;;;;;;;9.47;3.47;;;18.70;27.30;;;;;;5083985;28;20455;-85
2022/08/31 00:45:10;;;;;;;12.33;4.10;;;18.60;27.60;;;;;;5083641;28;20452;-84
2022/08/31 00:47:37;;;;;;;10.10;3.50;;;18.60;28.50;;;;;;5083228;28;21030;-84
2022/08/31 00:50:08;;;;;;;7.10;3.73;;;18.60;29.10;;;;;;5084156;28;20457;-86
2022/08/31 00:52:39;;;;;;;9.63;4.17;;;18.60;29.40;;;;;;5081980;28;20460;-83
2022/08/31 00:55:11;;;;;;;8.70;3.60;;;18.50;29.90;;;;;;5082258;28;20967;-85
2022/08/31 00:57:40;;;;;;;9.17;3.80;;;18.40;29.40;;;;;;5083294;28;20466;-83
2022/08/31 01:00:10;;;;;;;7.97;4.03;;;18.40;29.60;;;;;;5084561;28;20828;-86
2022/08/31 01:02:37;;;;;;;8.30;4.00;;;18.40;29.60;;;;;;5083164;28;20460;-85
2022/08/31 01:05:07;;;;;;;10.23;4.50;;;18.50;29.60;;;;;;5082222;28;20466;-85
2022/08/31 01:07:35;;;;;;;9.40;4.60;;;18.50;29.80;;;;;;5081602;28;20485;-83
2022/08/31 01:10:02;;;;;;;10.40;4.37;;;18.50;29.70;;;;;;5081051;28;20456;-84
2022/08/31 01:12:29;;;;;;;8.70;3.80;;;18.50;28.80;;;;;;5080854;28;20455;-84
2022/08/31 01:14:57;;;;;;;7.83;3.93;;;18.50;28.00;;;;;;5081351;28;20447;-83
2022/08/31 01:17:23;;;;;;;7.57;3.87;;;18.50;28.20;;;;;;5079623;28;20473;-84
2022/08/31 01:19:56;;;;;;;8.77;3.57;;;18.40;28.30;;;;;;5081926;28;20451;-82
2022/08/31 01:22:30;;;;;;;7.83;3.77;;;18.50;28.90;;;;;;5080662;28;20444;-85
2022/08/31 01:24:59;;;;;;;6.73;2.90;;;18.40;29.70;;;;;;5081521;28;20456;-83
2022/08/31 01:27:29;;;;;;;6.43;3.47;;;18.40;30.00;;;;;;5081955;28;20488;-84
2022/08/31 01:29:59;;;;;;;8.87;3.63;;;18.30;30.90;;;;;;5081465;28;20447;-84
2022/08/31 01:32:26;;;;;;;7.40;3.77;;;18.20;30.80;;;;;;5082897;28;20453;-84
2022/08/31 01:34:53;;;;;;;6.40;3.30;;;18.20;33.00;;;;;;5082764;28;20456;-82
2022/08/31 01:37:19;;;;;;;6.10;3.67;;;18.10;33.50;;;;;;5101788;22;20486;-81
2022/08/31 01:39:48;;;;;;;7.80;4.37;;;18.00;38.20;;;;;;5069342;28;20471;-82
2022/08/31 01:42:16;;;;;;;9.90;4.40;;;17.70;49.20;;;;;;5079545;28;20482;-81
2022/08/31 01:44:43;;;;;;;7.13;4.40;;;17.50;51.20;;;;;;5070869;28;20452;-82
2022/08/31 01:47:10;;;;;;;8.87;5.47;;;17.20;59.30;;;;;;5059757;28;20485;-83
2022/08/31 01:49:37;;;;;;;8.63;5.17;;;17.00;61.20;;;;;;5060094;28;20822;-83
2022/08/31 01:52:05;;;;;;;10.97;6.70;;;16.80;64.30;;;;;;5060520;28;20463;-83
2022/08/31 01:54:32;;;;;;;19.47;17.97;;;16.70;74.80;;;;;;5063987;28;20460;-84
2022/08/31 01:57:00;;;;;;;28.27;26.57;;;16.50;82.10;;;;;;5065047;28;20476;-84
2022/08/31 01:59:28;;;;;;;151.83;146.57;;;16.40;87.50;;;;;;5064741;28;20453;-84
2022/08/31 02:01:56;;;;;;;412.00;396.57;;;16.30;93.60;;;;;;5064991;28;20468;-84
2022/08/31 02:04:25;;;;;;;350.57;338.20;;;16.30;99.70;;;;;;5062906;28;20445;-84
2022/08/31 02:06:54;;;;;;;413.13;397.77;;;16.20;99.90;;;;;;5061556;28;20844;-84
2022/08/31 02:09:21;;;;;;;683.93;652.13;;;16.20;99.90;;;;;;5062255;28;20448;-84
2022/08/31 02:11:49;;;;;;;729.77;695.13;;;16.10;99.90;;;;;;5064406;28;20519;-85
2022/08/31 02:14:16;;;;;;;698.40;665.37;;;16.00;99.90;;;;;;5060927;28;20453;-84
2022/08/31 02:16:44;;;;;;;822.00;772.50;;;15.90;99.90;;;;;;5064994;28;20482;-84
2022/08/31 02:19:11;;;;;;;838.30;782.20;;;15.80;99.90;;;;;;5064583;28;20543;-84
2022/08/31 02:21:38;;;;;;;518.27;500.47;;;15.90;99.90;;;;;;5064894;28;20475;-84
2022/08/31 02:24:10;;;;;;;264.27;255.93;;;15.70;99.90;;;;;;5062547;28;20457;-86
2022/08/31 02:26:37;;;;;;;167.70;161.77;;;15.50;99.90;;;;;;5042561;28;20422;-84
2022/08/31 02:29:06;;;;;;;342.70;331.97;;;15.50;99.90;;;;;;5042820;28;20451;-85
2022/08/31 02:31:33;;;;;;;522.43;504.10;;;15.60;99.90;;;;;;5062490;28;20448;-84
2022/08/31 02:34:01;;;;;;;626.40;601.17;;;15.60;99.90;;;;;;5061623;28;20457;-83
2022/08/31 02:36:30;;;;;;;721.13;688.30;;;15.60;99.90;;;;;;5058681;28;20444;-84
2022/08/31 02:38:57;;;;;;;771.97;730.53;;;15.60;99.90;;;;;;5059475;28;20490;-83
2022/08/31 02:41:23;;;;;;;788.03;740.93;;;15.70;99.90;;;;;;5059834;28;20447;-83
2022/08/31 02:43:50;;;;;;;763.20;718.20;;;15.60;99.90;;;;;;5059147;28;20455;-83
2022/08/31 02:46:17;;;;;;;747.73;708.93;;;15.70;99.90;;;;;;5059143;28;20454;-83
2022/08/31 02:48:44;;;;;;;646.60;620.73;;;15.90;99.90;;;;;;5058914;28;20472;-85
2022/08/31 02:51:12;;;;;;;511.37;493.30;;;15.80;99.90;;;;;;5058570;28;20455;-83
2022/08/31 02:53:39;;;;;;;733.07;696.07;;;15.80;99.90;;;;;;5059252;28;20836;-83
2022/08/31 02:56:07;;;;;;;800.13;749.17;;;15.80;99.90;;;;;;5058534;28;20469;-84
2022/08/31 02:58:34;;;;;;;805.03;749.03;;;15.90;99.90;;;;;;5058308;28;20487;-83
2022/08/31 03:01:01;;;;;;;807.70;749.53;;;15.80;99.90;;;;;;5059137;28;20516;-83
2022/08/31 03:03:28;;;;;;;802.67;743.00;;;15.90;99.90;;;;;;5059785;28;20463;-83
2022/08/31 03:05:54;;;;;;;791.03;733.93;;;15.90;99.90;;;;;;5059031;28;20460;-83
2022/08/31 03:08:23;;;;;;;798.87;739.57;;;15.90;99.90;;;;;;5058726;28;20467;-83
2022/08/31 03:10:49;;;;;;;812.87;750.50;;;16.00;99.90;;;;;;5058973;28;20449;-83
2022/08/31 03:13:16;;;;;;;794.93;736.13;;;16.00;99.90;;;;;;5058550;28;20456;-83
2022/08/31 03:15:43;;;;;;;805.27;745.17;;;16.00;99.90;;;;;;5062858;28;20863;-83
2022/08/31 03:18:10;;;;;;;811.93;749.40;;;15.90;99.90;;;;;;5082993;28;20479;-84
2022/08/31 03:20:37;;;;;;;812.53;748.70;;;16.00;99.90;;;;;;5083522;28;20456;-83
2022/08/31 03:23:04;;;;;;;814.47;751.90;;;15.90;99.90;;;;;;5083354;28;20447;-84
2022/08/31 03:25:33;;;;;;;821.83;759.20;;;15.90;99.90;;;;;;5065877;28;20456;-84
2022/08/31 03:28:00;;;;;;;820.20;756.57;;;15.90;99.90;;;;;;5063499;28;21059;-84
2022/08/31 03:30:30;;;;;;;780.63;725.53;;;15.90;99.90;;;;;;5062811;28;20456;-84
2022/08/31 03:33:01;;;;;;;806.03;745.90;;;15.70;99.90;;;;;;5061935;28;20457;-84
2022/08/31 03:35:36;;;;;;;845.53;778.27;;;15.80;99.90;;;;;;5044329;28;20455;-84
2022/08/31 03:38:07;;;;;;;865.50;795.23;;;15.80;99.90;;;;;;5043256;28;20481;-84
2022/08/31 03:40:37;;;;;;;847.30;778.53;;;15.90;99.90;;;;;;5060981;28;20476;-84
2022/08/31 03:43:13;;;;;;;838.90;770.00;;;15.90;99.90;;;;;;5061882;28;20463;-82
2022/08/31 03:45:45;;;;;;;813.47;747.10;;;15.80;99.90;;;;;;5060394;28;20476;-82
2022/08/31 03:48:13;;;;;;;820.03;753.67;;;15.80;99.90;;;;;;5060678;28;20498;-84
2022/08/31 03:50:43;;;;;;;827.30;757.50;;;15.90;99.90;;;;;;5060002;28;20474;-82
2022/08/31 03:53:14;;;;;;;847.53;772.90;;;15.80;99.90;;;;;;5060671;28;20466;-83
2022/08/31 03:55:43;;;;;;;825.33;750.30;;;15.80;99.90;;;;;;5060753;28;20459;-83
2022/08/31 03:58:12;;;;;;;817.40;743.67;;;15.90;99.90;;;;;;5061164;28;20479;-83
2022/08/31 04:00:46;;;;;;;846.90;773.10;;;15.80;99.90;;;;;;5060550;28;20547;-83
2022/08/31 04:03:18;;;;;;;846.00;775.43;;;15.80;99.90;;;;;;5061305;28;20452;-84
2022/08/31 04:05:47;;;;;;;830.30;762.73;;;15.70;99.90;;;;;;5060398;28;20439;-82
2022/08/31 04:08:18;;;;;;;839.23;768.40;;;15.70;99.90;;;;;;5060524;28;20445;-82
2022/08/31 04:10:54;;;;;;;832.27;763.27;;;15.70;99.90;;;;;;5045191;28;20951;-82
2022/08/31 04:13:22;;;;;;;839.27;768.60;;;15.70;99.90;;;;;;5065355;28;20459;-83
2022/08/31 04:15:49;;;;;;;817.63;748.10;;;15.70;99.90;;;;;;5066380;28;20462;-83
2022/08/31 04:18:16;;;;;;;828.40;758.13;;;15.70;99.90;;;;;;5066530;28;20499;-83
2022/08/31 04:20:43;;;;;;;830.70;759.23;;;15.80;99.90;;;;;;5066271;28;20886;-83
2022/08/31 04:23:16;;;;;;;833.70;762.83;;;15.80;99.90;;;;;;5066417;28;20451;-83
2022/08/31 04:25:50;;;;;;;837.33;767.60;;;15.80;99.90;;;;;;5064768;28;20467;-82
2022/08/31 04:28:21;;;;;;;834.53;763.87;;;15.80;99.90;;;;;;5044579;28;20468;-83
2022/08/31 04:30:48;;;;;;;847.83;778.73;;;15.80;99.90;;;;;;5066880;28;20501;-84
2022/08/31 04:33:22;;;;;;;859.70;791.40;;;15.70;99.90;;;;;;5065299;28;20471;-84
2022/08/31 04:35:52;;;;;;;871.47;799.63;;;15.70;99.90;;;;;;5066168;28;20523;-84
2022/08/31 04:38:22;;;;;;;867.97;793.33;;;15.70;99.90;;;;;;5066215;28;20478;-83
2022/08/31 04:40:51;;;;;;;853.43;776.70;;;15.50;99.90;;;;;;5067274;28;20452;-84
2022/08/31 04:43:27;;;;;;;851.10;774.83;;;15.70;99.90;;;;;;5064686;28;20537;-84
2022/08/31 04:45:54;;;;;;;837.50;760.63;;;15.60;99.90;;;;;;5062687;28;20451;-83
2022/08/31 04:48:21;;;;;;;838.07;761.50;;;15.60;99.90;;;;;;5065224;28;20476;-83
2022/08/31 04:51:08;;;;;;;837.10;761.23;;;15.70;99.90;;;;;;5066234;28;20841;-83
2022/08/31 04:53:36;;;;;;;813.67;739.37;;;15.50;99.90;;;;;;5065534;28;20451;-83
2022/08/31 04:56:13;;;;;;;822.30;750.77;;;15.60;99.90;;;;;;5061842;28;20456;-81
2022/08/31 04:58:39;;;;;;;844.03;775.43;;;15.60;99.90;;;;;;5057770;28;20558;-81
2022/08/31 05:01:08;;;;;;;853.73;787.37;;;15.60;99.90;;;;;;5058350;28;20459;-80
2022/08/31 05:03:35;;;;;;;852.40;782.60;;;15.40;99.90;;;;;;5046331;28;21000;-80
2022/08/31 05:06:38;;;;;;;841.97;770.20;;;15.40;99.90;;;;;;5062769;28;20459;-84
2022/08/31 05:09:22;;;;;;;828.57;755.30;;;15.50;99.90;;;;;;5053133;28;20483;-83
2022/08/31 05:11:51;;;;;;;808.43;738.43;;;15.50;99.90;;;;;;5045754;28;20449;-79
2022/08/31 05:14:20;;;;;;;799.17;728.83;;;15.50;99.90;;;;;;5072173;28;20451;-80
2022/08/31 05:16:48;;;;;;;793.30;722.63;;;15.50;99.90;;;;;;5064053;28;20447;-79
2022/08/31 05:19:14;;;;;;;798.03;725.57;;;15.60;99.90;;;;;;5056822;28;20480;-79
2022/08/31 05:21:43;;;;;;;813.73;741.87;;;15.60;99.90;;;;;;5055928;28;20462;-79
2022/08/31 05:24:12;;;;;;;806.13;734.03;;;15.60;99.90;;;;;;5056508;28;20962;-78
2022/08/31 05:26:43;;;;;;;822.23;749.30;;;15.60;99.90;;;;;;5056857;28;20839;-79
2022/08/31 05:29:14;;;;;;;820.60;746.53;;;15.60;99.90;;;;;;5062103;28;20457;-79
2022/08/31 05:31:42;;;;;;;822.47;748.43;;;15.60;99.90;;;;;;5078320;28;20455;-82
2022/08/31 05:34:11;;;;;;;819.00;744.97;;;15.60;99.90;;;;;;5079961;28;20516;-80
2022/08/31 05:36:38;;;;;;;813.53;740.27;;;15.70;99.90;;;;;;5081317;28;20835;-81
2022/08/31 05:39:08;;;;;;;828.27;756.83;;;15.60;99.90;;;;;;5082032;28;20897;-80
2022/08/31 05:41:35;;;;;;;803.30;736.53;;;15.70;99.90;;;;;;5075419;28;20451;-79
2022/08/31 05:44:03;;;;;;;818.60;755.63;;;15.60;99.90;;;;;;5075380;28;20451;-79
2022/08/31 05:46:31;;;;;;;832.87;770.83;;;15.60;99.90;;;;;;5054069;28;20573;-79
2022/08/31 05:48:58;;;;;;;833.77;776.30;;;15.60;99.90;;;;;;5051345;28;20475;-79
2022/08/31 05:51:25;;;;;;;804.30;746.73;;;15.60;99.90;;;;;;5062665;28;20448;-83
2022/08/31 05:53:52;;;;;;;784.00;724.20;;;15.60;99.90;;;;;;5063679;28;21280;-83
2022/08/31 05:56:22;;;;;;;788.07;728.43;;;15.60;99.90;;;;;;5063985;28;20456;-83
2022/08/31 05:58:49;;;;;;;762.83;711.40;;;15.60;99.90;;;;;;5062108;28;20472;-83
2022/08/31 06:01:17;;;;;;;742.37;692.93;;;15.60;99.90;;;;;;5062581;28;20456;-82
2022/08/31 06:06:58;;;;;;;739.20;689.33;;;15.60;99.90;;;;;;5026533;28;20502;-83
2022/08/31 06:10:11;;;;;;;;;;;;;;;;;;;;;
2022/08/31 06:12:56;;;;;;;683.90;643.53;;;15.70;99.90;;;;;;5047250;28;20948;-83
2022/08/31 06:16:18;;;;;;;;;;;;;;;;;;;;;
2022/08/31 06:18:49;;;;;;;707.47;662.67;;;15.60;99.90;;;;;;4948182;29;20562;-83
2022/08/31 06:27:37;;;;;;;659.63;624.07;;;15.70;99.90;;;;;;5051228;28;20999;-82
2022/08/31 06:30:35;;;;;;;669.70;632.73;;;15.80;99.90;;;;;;5062084;28;20456;-83
2022/08/31 06:39:14;;;;;;;735.77;686.30;;;15.90;99.90;;;;;;5039788;28;20838;-83
2022/08/31 06:41:59;;;;;;;757.87;703.83;;;15.60;99.90;;;;;;5058203;28;20451;-83
2022/08/31 06:44:41;;;;;;;754.90;700.30;;;15.60;99.90;;;;;;5061440;28;20452;-83
2022/08/31 06:47:08;;;;;;;745.53;694.47;;;15.70;99.90;;;;;;5058411;28;21017;-83
2022/08/31 06:49:34;;;;;;;733.47;686.67;;;15.70;99.90;;;;;;5063679;28;20474;-83
2022/08/31 06:52:01;;;;;;;735.97;688.13;;;15.70;99.90;;;;;;5067123;28;20456;-83
2022/08/31 06:54:28;;;;;;;713.97;669.57;;;15.70;99.90;;;;;;5065388;28;20452;-83
2022/08/31 06:56:58;;;;;;;669.97;632.10;;;15.80;99.90;;;;;;5064727;28;20448;-83
2022/08/31 06:59:24;;;;;;;677.90;638.53;;;15.90;99.90;;;;;;5065083;28;20490;-83
2022/08/31 07:01:51;;;;;;;710.97;665.67;;;15.80;99.90;;;;;;5066017;28;20458;-83
2022/08/31 07:04:18;;;;;;;703.40;659.63;;;16.00;99.90;;;;;;5065248;28;20447;-83
2022/08/31 07:06:45;;;;;;;725.37;678.90;;;16.10;99.90;;;;;;5064093;28;20448;-83
2022/08/31 07:09:16;;;;;;;669.93;632.33;;;16.20;99.90;;;;;;5059737;28;20525;-83
2022/08/31 07:12:38;;;;;;;;;;;;;;;;;;;;;
2022/08/31 07:15:07;;;;;;;579.10;553.40;;;16.30;99.90;;;;;;5037672;28;20473;-83
2022/08/31 07:17:34;;;;;;;563.30;538.43;;;16.50;99.90;;;;;;5058328;28;20527;-82
2022/08/31 07:20:01;;;;;;;253.93;245.63;;;16.70;99.90;;;;;;5083184;28;20483;-83
2022/08/31 07:22:52;;;;;;;209.07;201.77;;;16.70;99.90;;;;;;5065238;28;20453;-85
2022/08/31 07:25:30;;;;;;;88.80;85.00;;;16.90;99.90;;;;;;5045417;28;20457;-85
2022/08/31 07:28:16;;;;;;;65.80;63.00;;;17.00;99.90;;;;;;5055765;28;20474;-85
2022/08/31 07:34:37;;;;;;;32.33;30.23;;;17.30;97.90;;;;;;5040614;28;20459;-83
2022/08/31 07:44:02;;;;;;;;;;;;;;;;;;;;;
2022/08/31 07:46:38;;;;;;;10.03;7.63;;;17.90;97.60;;;;;;4962115;29;20448;-84
2022/08/31 07:49:07;;;;;;;9.43;6.93;;;17.90;93.90;;;;;;5044534;28;20447;-81
2022/08/31 07:51:49;;;;;;;10.90;8.40;;;18.00;94.10;;;;;;5064349;28;20458;-81
2022/08/31 07:54:19;;;;;;;12.07;7.30;;;18.20;94.40;;;;;;5065673;28;20508;-81
2022/08/31 07:56:50;;;;;;;12.17;6.43;;;18.40;91.40;;;;;;5065368;28;20447;-83
2022/08/31 07:59:20;;;;;;;9.50;5.73;;;18.60;87.60;;;;;;5067246;28;20502;-81
2022/08/31 08:01:47;;;;;;;8.87;6.13;;;19.00;90.80;;;;;;5065830;28;20453;-81
2022/08/31 08:04:24;;;;;;;10.80;6.50;;;19.40;86.90;;;;;;5065578;28;20446;-81
2022/08/31 08:06:52;;;;;;;10.50;5.67;;;19.80;85.90;;;;;;5066276;28;20485;-81
2022/08/31 08:09:28;;;;;;;11.30;5.17;;;19.90;78.00;;;;;;5064998;28;20460;-81
2022/08/31 08:12:03;;;;;;;9.03;4.63;;;19.90;76.60;;;;;;5064238;28;20452;-81
2022/08/31 08:14:32;;;;;;;11.17;5.70;;;20.00;73.10;;;;;;5063871;28;20540;-81
2022/08/31 08:17:04;;;;;;;8.73;5.30;;;20.00;73.50;;;;;;5064154;28;20540;-81
2022/08/31 08:19:32;;;;;;;15.83;5.23;;;19.90;73.60;;;;;;5063238;28;20472;-81
2022/08/31 08:22:04;;;;;;;10.63;5.97;;;19.90;74.70;;;;;;5063987;28;20461;-81
2022/08/31 08:24:33;;;;;;;10.37;5.83;;;20.10;74.30;;;;;;5063732;28;20458;-82
2022/08/31 08:27:00;;;;;;;12.97;5.60;;;20.50;70.60;;;;;;5064142;28;20473;-81
2022/08/31 08:29:32;;;;;;;9.77;5.97;;;20.60;70.60;;;;;;5064349;28;20446;-81
2022/08/31 08:32:00;;;;;;;8.80;6.00;;;20.70;71.20;;;;;;5064335;28;20461;-81
2022/08/31 08:34:33;;;;;;;15.43;6.20;;;20.60;70.00;;;;;;5046191;28;20495;-81
2022/08/31 08:37:00;;;;;;;9.37;5.80;;;20.70;67.20;;;;;;5064256;28;20493;-82
2022/08/31 08:39:28;;;;;;;13.33;5.80;;;20.80;69.00;;;;;;5064417;28;20486;-82
2022/08/31 08:41:57;;;;;;;7.97;5.47;;;20.70;66.00;;;;;;5063932;28;20454;-82
2022/08/31 08:44:26;;;;;;;9.40;6.10;;;20.90;65.10;;;;;;5064493;28;20454;-82
2022/08/31 08:46:55;;;;;;;8.27;5.97;;;20.80;63.40;;;;;;5062612;28;20471;-82
2022/08/31 08:49:29;;;;;;;9.63;5.40;;;20.80;64.00;;;;;;5062972;28;20846;-83
2022/08/31 08:52:01;;;;;;;9.97;5.53;;;21.00;62.80;;;;;;5062827;28;20469;-82
2022/08/31 08:54:31;;;;;;;9.03;5.13;;;21.40;60.80;;;;;;5061357;28;20452;-82
2022/08/31 08:57:03;;;;;;;9.13;5.47;;;21.90;60.00;;;;;;5058042;28;20456;-81
2022/08/31 08:59:29;;;;;;;11.80;5.70;;;22.50;53.60;;;;;;5058811;28;20481;-82
2022/08/31 09:02:03;;;;;;;8.47;5.20;;;23.30;56.90;;;;;;5063670;28;20452;-81
2022/08/31 09:04:49;;;;;;;10.30;5.00;;;23.80;50.40;;;;;;5062211;28;20470;-84
2022/08/31 09:07:36;;;;;;;7.60;4.90;;;24.20;43.80;;;;;;5060861;28;20463;-88
2022/08/31 09:10:11;;;;;;;9.23;5.30;;;24.50;40.90;;;;;;5062262;28;20447;-83
2022/08/31 09:12:45;;;;;;;8.10;4.73;;;24.90;39.90;;;;;;5063659;28;20450;-83
2022/08/31 09:15:42;;;;;;;9.90;4.30;;;25.00;35.10;;;;;;5065198;28;20486;-83
2022/08/31 09:18:30;;;;;;;10.70;5.73;;;25.30;33.20;;;;;;5066439;28;20478;-83
2022/08/31 09:21:02;;;;;;;10.10;6.13;;;25.20;30.90;;;;;;5066102;28;20470;-83
2022/08/31 09:23:35;;;;;;;7.97;5.20;;;25.50;31.10;;;;;;5065928;28;20442;-84
2022/08/31 09:26:03;;;;;;;10.67;5.47;;;25.40;31.00;;;;;;5066518;28;20450;-83
2022/08/31 09:28:36;;;;;;;8.07;4.33;;;25.50;30.90;;;;;;5066872;28;21003;-84
2022/08/31 09:31:03;;;;;;;8.13;4.53;;;26.10;28.50;;;;;;5066087;28;20451;-84
2022/08/31 09:33:32;;;;;;;8.27;5.27;;;26.30;26.90;;;;;;5065528;28;20479;-84
2022/08/31 09:36:14;;;;;;;9.50;5.30;;;26.10;24.20;;;;;;5063796;28;20863;-84
2022/08/31 09:38:45;;;;;;;7.50;4.73;;;26.10;23.90;;;;;;5063629;28;20485;-84
2022/08/31 09:41:30;;;;;;;7.93;4.50;;;26.00;23.60;;;;;;5065673;28;20460;-84
2022/08/31 09:44:19;;;;;;;9.27;5.27;;;27.00;20.50;;;;;;5063802;28;20463;-82
2022/08/31 09:46:47;;;;;;;9.03;4.37;;;26.80;19.90;;;;;;5064261;28;20451;-84
2022/08/31 09:49:20;;;;;;;7.03;4.30;;;26.80;17.70;;;;;;5063492;28;21023;-82
2022/08/31 09:51:48;;;;;;;7.70;4.93;;;27.00;18.00;;;;;;5062747;28;20459;-82
2022/08/31 09:57:06;;;;;;;9.50;5.50;;;26.40;19.00;;;;;;5061022;28;20901;-82
2022/08/31 09:59:38;;;;;;;9.03;4.50;;;26.50;18.90;;;;;;5061707;28;20457;-82
2022/08/31 10:02:11;;;;;;;8.20;4.70;;;27.00;17.30;;;;;;5060247;28;20899;-82
2022/08/31 10:04:49;;;;;;;12.50;5.60;;;26.60;18.20;;;;;;5059612;28;20452;-83
2022/08/31 10:07:29;;;;;;;15.60;6.23;;;26.30;19.20;;;;;;5059947;28;20445;-82
2022/08/31 10:10:01;;;;;;;11.60;5.23;;;26.00;20.00;;;;;;5060948;28;20451;-82
2022/08/31 10:12:48;;;;;;;11.63;6.50;;;25.80;18.70;;;;;;5061815;28;20451;-82
2022/08/31 10:15:21;;;;;;;10.33;6.20;;;25.80;18.10;;;;;;5062039;28;20427;-82
2022/08/31 10:17:56;;;;;;;12.53;5.50;;;26.00;16.30;;;;;;5062749;28;20475;-82
2022/08/31 10:20:29;;;;;;;8.13;4.97;;;27.00;18.10;;;;;;5061835;28;20479;-82
2022/08/31 10:23:05;;;;;;;9.47;5.20;;;27.60;13.30;;;;;;5058925;28;20516;-82
2022/08/31 10:25:39;;;;;;;8.27;4.60;;;27.60;13.60;;;;;;5059124;28;20450;-83
2022/08/31 10:28:20;;;;;;;7.77;4.47;;;27.60;16.20;;;;;;5058916;28;20878;-82
2022/08/31 10:30:58;;;;;;;9.67;4.87;;;27.60;11.60;;;;;;5059568;28;20448;-82
2022/08/31 10:35:01;;;;;;;8.73;4.90;;;28.00;11.60;;;;;;5058330;28;20970;-82
2022/08/31 10:36:19;;;;;;;13.70;5.37;;;28.40;13.00;;;;;;5060013;28;20447;-80
2022/08/31 10:38:49;;;;;;;11.30;5.83;;;29.00;10.30;;;;;;5059066;28;20560;-82
2022/08/31 10:41:22;;;;;;;9.30;4.87;;;28.80;10.20;;;;;;5058763;28;20443;-82
2022/08/31 10:44:00;;;;;;;10.87;5.77;;;29.10;11.10;;;;;;5059639;28;20470;-82
2022/08/31 10:46:34;;;;;;;13.53;6.10;;;29.20;9.10;;;;;;5057437;28;20540;-82
2022/08/31 10:49:02;;;;;;;12.73;5.80;;;29.30;7.80;;;;;;5059238;28;20540;-83
2022/08/31 10:51:37;;;;;;;10.00;6.00;;;28.90;6.90;;;;;;5060647;28;20458;-82
2022/08/31 10:54:27;;;;;;;8.90;5.70;;;29.10;8.10;;;;;;5058439;28;20458;-80
2022/08/31 10:57:08;;;;;;;13.30;6.13;;;28.80;7.50;;;;;;5057198;28;20447;-81
2022/08/31 10:59:42;;;;;;;9.67;5.43;;;28.40;8.90;;;;;;5055651;28;20484;-79
2022/08/31 11:02:33;;;;;;;11.60;5.50;;;29.00;10.30;;;;;;5053202;28;20454;-81
2022/08/31 11:05:11;;;;;;;10.17;5.60;;;29.00;7.80;;;;;;5055574;28;20430;-84
2022/08/31 11:07:56;;;;;;;13.67;5.73;;;29.60;7.40;;;;;;5042202;28;20554;-83
2022/08/31 11:10:31;;;;;;;10.90;5.13;;;30.30;3.20;;;;;;5054288;28;20493;-83
2022/08/31 11:13:04;;;;;;;9.50;5.07;;;31.30;1.00;;;;;;5053794;28;20440;-84
2022/08/31 11:15:56;;;;;;;8.80;5.63;;;31.90;1.00;;;;;;5049820;28;20465;-84
2022/08/31 11:18:58;;;;;;;8.60;5.47;;;31.40;1.00;;;;;;5050812;28;20501;-84
2022/08/31 11:21:51;;;;;;;7.83;5.00;;;31.70;1.00;;;;;;5057007;28;20481;-85
2022/08/31 11:24:59;;;;;;;9.10;5.00;;;32.00;1.00;;;;;;5051411;28;20426;-84
2022/08/31 11:27:32;;;;;;;9.90;5.07;;;31.60;1.00;;;;;;5050710;28;20503;-84
2022/08/31 11:30:02;;;;;;;9.97;6.17;;;30.70;1.00;;;;;;5051656;28;20542;-85
2022/08/31 11:32:38;;;;;;;10.53;6.87;;;30.20;1.00;;;;;;5051696;28;20475;-84
2022/08/31 11:35:14;;;;;;;14.13;10.67;;;30.20;1.00;;;;;;5051589;28;20716;-84
2022/08/31 11:37:59;;;;;;;9.13;5.10;;;29.80;1.00;;;;;;5051607;28;20790;-84
2022/08/31 11:41:09;;;;;;;11.60;5.80;;;29.50;1.00;;;;;;5052175;28;20449;-84
2022/08/31 11:43:51;;;;;;;10.80;5.50;;;30.20;1.00;;;;;;5031916;28;20457;-83
2022/08/31 11:47:00;;;;;;;7.90;4.80;;;30.60;1.00;;;;;;5038287;28;20466;-82
2022/08/31 11:49:41;;;;;;;8.10;5.00;;;30.20;1.00;;;;;;5043088;28;20452;-81
2022/08/31 11:52:29;;;;;;;8.90;5.17;;;30.50;1.00;;;;;;5058824;28;20493;-81
2022/08/31 11:55:07;;;;;;;9.60;4.93;;;30.00;1.00;;;;;;5055986;28;20467;-82
2022/08/31 11:58:14;;;;;;;9.90;5.20;;;29.80;1.00;;;;;;5053448;28;20445;-82
2022/08/31 12:00:43;;;;;;;7.30;4.30;;;29.80;1.00;;;;;;5062470;28;20475;-81
2022/08/31 12:03:30;;;;;;;8.43;4.33;;;29.40;1.00;;;;;;5068971;28;20443;-81
2022/08/31 12:05:57;;;;;;;8.27;4.13;;;30.00;1.00;;;;;;5068614;28;20534;-82
2022/08/31 12:08:30;;;;;;;9.30;4.57;;;30.10;1.00;;;;;;5061828;28;20990;-81
2022/08/31 12:11:05;;;;;;;10.20;5.37;;;29.70;1.00;;;;;;5062535;28;20493;-81
2022/08/31 12:13:44;;;;;;;9.13;4.23;;;29.60;1.00;;;;;;5062765;28;20417;-80
2022/08/31 12:16:26;;;;;;;9.70;6.10;;;30.00;1.00;;;;;;5061035;28;20501;-81
2022/08/31 12:25:45;;;;;;;7.90;4.30;;;28.70;1.00;;;;;;5048002;28;20853;-84
2022/08/31 12:28:20;;;;;;;6.93;4.13;;;30.60;1.00;;;;;;5051482;28;20453;-85
2022/08/31 12:30:53;;;;;;;10.30;3.70;;;31.90;1.00;;;;;;5053455;28;20490;-85
2022/08/31 12:33:23;;;;;;;8.43;4.17;;;31.80;1.00;;;;;;5055231;28;20475;-85
2022/08/31 12:35:55;;;;;;;6.90;3.80;;;31.20;1.00;;;;;;5054811;28;20946;-85
2022/08/31 12:38:25;;;;;;;6.60;4.20;;;31.40;1.00;;;;;;5054811;28;20490;-85
2022/08/31 12:40:55;;;;;;;10.40;4.43;;;32.80;1.00;;;;;;5055745;28;20519;-84
2022/08/31 12:43:27;;;;;;;6.50;3.90;;;32.50;1.00;;;;;;5055298;28;20501;-85
2022/08/31 12:46:36;;;;;;;7.20;4.17;;;32.00;1.00;;;;;;5054844;28;20453;-85
2022/08/31 12:49:34;;;;;;;7.03;3.33;;;33.30;1.00;;;;;;5054570;28;20467;-84
2022/08/31 12:52:14;;;;;;;7.00;3.27;;;34.80;1.00;;;;;;5049647;28;20459;-85
2022/08/31 12:55:04;;;;;;;8.10;3.40;;;34.90;1.00;;;;;;5054338;28;20425;-85
2022/08/31 12:58:02;;;;;;;9.10;3.70;;;35.00;1.00;;;;;;5054371;28;20445;-85
2022/08/31 13:00:31;;;;;;;5.23;3.10;;;33.90;1.00;;;;;;5054207;28;20481;-85
2022/08/31 13:03:00;;;;;;;6.27;3.57;;;33.40;1.00;;;;;;5054338;28;20926;-85
2022/08/31 13:05:30;;;;;;;5.10;2.73;;;33.70;1.00;;;;;;5054346;28;20434;-84
2022/08/31 13:07:58;;;;;;;14.40;3.73;;;33.40;1.00;;;;;;5054470;28;20471;-85
2022/08/31 13:10:29;;;;;;;9.00;3.17;;;33.70;1.00;;;;;;5054360;28;20450;-84
2022/08/31 13:13:00;;;;;;;7.50;3.33;;;34.30;1.00;;;;;;5054288;28;20451;-85
2022/08/31 13:15:30;;;;;;;6.20;3.50;;;34.10;1.00;;;;;;5054242;28;20649;-85
2022/08/31 13:18:01;;;;;;;6.40;2.97;;;32.70;1.00;;;;;;5054063;28;20470;-85
2022/08/31 13:20:33;;;;;;;7.47;3.87;;;31.80;1.00;;;;;;5054541;28;20487;-85
2022/08/31 13:26:18;;;;;;;9.10;3.90;;;28.90;1.00;;;;;;5052017;28;20930;-84
2022/08/31 13:28:50;;;;;;;8.77;3.43;;;28.00;1.00;;;;;;5054533;28;20474;-85
2022/08/31 13:31:53;;;;;;;8.27;3.87;;;27.20;1.00;;;;;;5054306;28;20486;-84
2022/08/31 13:34:22;;;;;;;7.23;3.63;;;26.60;1.00;;;;;;5054032;28;20433;-84
2022/08/31 13:36:52;;;;;;;8.67;4.20;;;26.30;1.00;;;;;;5053393;28;20447;-84
2022/08/31 13:39:26;;;;;;;6.50;3.90;;;25.90;1.00;;;;;;5054946;28;20859;-84
2022/08/31 13:42:05;;;;;;;8.73;4.10;;;25.60;1.00;;;;;;5053363;28;20455;-84
2022/08/31 13:44:38;;;;;;;7.20;3.50;;;25.60;1.00;;;;;;5053122;28;20451;-84
2022/08/31 13:47:19;;;;;;;7.90;3.77;;;25.60;1.00;;;;;;5053659;28;20479;-84
2022/08/31 13:49:51;;;;;;;8.10;4.00;;;26.00;1.00;;;;;;5053477;28;20478;-84